Time;durP1;ratioP1;P1;durP2;ratioP2;P2;SDS_P1;SDS_P2;PMS_P1;PMS_P2;Temp;Humidity;BMP_temperature;BMP_pressure;BME280_temperature;BME280_humidity;BME280_pressure;Samples;Min_cycle;Max_cycle;Signal;HPM_P1;HPM_P2
2022/10/09 00:00:26;;;;;;;60.60;3.88;;;;;;;;;;5114611;28;20953;-68
2022/10/09 00:02:53;;;;;;;58.80;3.45;;;;;;;;;;5114977;28;20584;-67
2022/10/09 00:05:22;;;;;;;58.30;3.53;;;;;;;;;;5114859;28;20220;-67
2022/10/09 00:07:49;;;;;;;58.90;3.40;;;;;;;;;;5114628;28;20444;-67
2022/10/09 00:10:16;;;;;;;58.95;3.35;;;;;;;;;;5113658;28;20453;-67
2022/10/09 00:12:43;;;;;;;59.47;4.25;;;;;;;;;;5114869;28;20666;-67
2022/10/09 00:15:11;;;;;;;59.78;3.60;;;;;;;;;;5114732;28;20229;-67
2022/10/09 00:17:38;;;;;;;58.57;3.00;;;;;;;;;;5114591;28;20230;-67
2022/10/09 00:20:06;;;;;;;59.55;3.83;;;;;;;;;;5114025;28;20445;-67
2022/10/09 00:22:34;;;;;;;59.87;4.13;;;;;;;;;;5114054;28;20668;-67
2022/10/09 00:25:01;;;;;;;58.75;3.20;;;;;;;;;;5114600;28;20468;-68
2022/10/09 00:27:28;;;;;;;60.30;4.93;;;;;;;;;;5114834;28;20202;-67
2022/10/09 00:29:55;;;;;;;60.22;3.97;;;;;;;;;;5114026;28;20459;-68
2022/10/09 00:32:23;;;;;;;59.03;3.50;;;;;;;;;;5113779;28;20226;-67
2022/10/09 00:38:01;;;;;;;60.67;4.18;;;;;;;;;;5049455;28;20522;-67
2022/10/09 00:40:28;;;;;;;58.92;3.40;;;;;;;;;;5050949;28;20297;-67
2022/10/09 00:42:56;;;;;;;59.55;3.47;;;;;;;;;;5051030;28;20213;-68
2022/10/09 00:45:24;;;;;;;60.80;3.67;;;;;;;;;;5050486;28;20237;-67
2022/10/09 00:47:52;;;;;;;58.80;3.20;;;;;;;;;;5051050;28;20483;-68
2022/10/09 00:50:21;;;;;;;58.17;2.97;;;;;;;;;;5050652;28;20444;-67
2022/10/09 00:52:50;;;;;;;61.63;4.23;;;;;;;;;;5051011;28;20595;-67
2022/10/09 00:55:19;;;;;;;59.17;3.55;;;;;;;;;;5050162;28;20568;-67
2022/10/09 00:57:46;;;;;;;59.80;3.50;;;;;;;;;;5050773;28;20222;-67
2022/10/09 01:00:14;;;;;;;59.70;3.50;;;;;;;;;;5050568;28;20210;-67
2022/10/09 01:02:41;;;;;;;59.05;3.35;;;;;;;;;;5050770;28;20674;-67
2022/10/09 01:05:09;;;;;;;59.20;3.95;;;;;;;;;;5050763;28;20221;-67
2022/10/09 01:07:39;;;;;;;58.83;4.20;;;;;;;;;;5049871;28;20248;-67
2022/10/09 01:10:11;;;;;;;58.88;3.30;;;;;;;;;;5062008;28;20312;-68
2022/10/09 01:12:46;;;;;;;59.17;3.40;;;;;;;;;;5050774;28;20233;-67
2022/10/09 01:15:17;;;;;;;59.35;3.33;;;;;;;;;;5090000;28;20246;-67
2022/10/09 01:17:47;;;;;;;59.13;3.17;;;;;;;;;;5113310;28;20227;-67
2022/10/09 01:20:23;;;;;;;58.55;3.55;;;;;;;;;;5111744;28;20204;-67
2022/10/09 01:22:57;;;;;;;60.10;3.40;;;;;;;;;;5113351;28;20203;-67
2022/10/09 01:25:26;;;;;;;67.35;4.45;;;;;;;;;;5111778;28;20239;-67
2022/10/09 01:27:55;;;;;;;59.75;4.43;;;;;;;;;;5113307;28;20273;-68
2022/10/09 01:30:22;;;;;;;59.35;3.33;;;;;;;;;;5112341;28;20207;-67
2022/10/09 01:32:51;;;;;;;60.28;4.15;;;;;;;;;;5113115;28;20210;-67
2022/10/09 01:35:19;;;;;;;61.83;4.72;;;;;;;;;;5112994;28;20239;-67
2022/10/09 01:37:47;;;;;;;59.38;3.70;;;;;;;;;;5112907;28;20230;-67
2022/10/09 01:40:16;;;;;;;59.08;3.85;;;;;;;;;;5112677;28;20203;-67
2022/10/09 01:42:45;;;;;;;62.90;4.95;;;;;;;;;;5112348;28;20587;-67
2022/10/09 01:45:14;;;;;;;58.58;3.45;;;;;;;;;;5112734;28;20228;-68
2022/10/09 01:47:41;;;;;;;59.35;4.20;;;;;;;;;;5113104;27;20203;-67
2022/10/09 01:50:15;;;;;;;63.38;3.97;;;;;;;;;;5112697;28;20529;-67
2022/10/09 01:52:44;;;;;;;58.65;3.40;;;;;;;;;;5112255;28;20203;-67
2022/10/09 01:55:20;;;;;;;61.30;5.50;;;;;;;;;;5113003;28;20226;-67
2022/10/09 01:57:49;;;;;;;59.80;3.67;;;;;;;;;;5112611;28;20227;-68
2022/10/09 02:00:18;;;;;;;59.85;4.10;;;;;;;;;;5112553;27;20204;-67
2022/10/09 02:02:46;;;;;;;66.53;7.25;;;;;;;;;;5113024;28;20200;-67
2022/10/09 02:05:14;;;;;;;58.83;4.03;;;;;;;;;;5111944;28;20220;-67
2022/10/09 02:07:41;;;;;;;59.90;4.05;;;;;;;;;;5112646;28;20202;-67
2022/10/09 02:10:10;;;;;;;59.78;3.95;;;;;;;;;;5112048;28;20208;-67
2022/10/09 02:12:39;;;;;;;59.30;3.60;;;;;;;;;;5112685;28;20226;-67
2022/10/09 02:15:06;;;;;;;59.67;3.97;;;;;;;;;;5112222;28;20239;-67
2022/10/09 02:17:38;;;;;;;62.28;4.47;;;;;;;;;;5111983;28;20580;-68
2022/10/09 02:20:07;;;;;;;59.83;4.18;;;;;;;;;;5112103;28;20210;-67
2022/10/09 02:22:34;;;;;;;60.05;4.13;;;;;;;;;;5112195;28;20214;-67
2022/10/09 02:25:03;;;;;;;58.15;2.70;;;;;;;;;;5112448;28;20228;-67
2022/10/09 02:27:31;;;;;;;60.55;3.30;;;;;;;;;;5111851;28;20213;-67
2022/10/09 02:29:59;;;;;;;60.22;4.28;;;;;;;;;;5111890;28;20208;-67
2022/10/09 02:32:26;;;;;;;59.38;3.95;;;;;;;;;;5112275;28;20675;-67
2022/10/09 02:34:54;;;;;;;59.28;3.47;;;;;;;;;;5112188;28;20222;-68
2022/10/09 02:37:21;;;;;;;61.70;5.47;;;;;;;;;;5112102;28;20687;-67
2022/10/09 02:39:49;;;;;;;58.97;4.25;;;;;;;;;;5111288;28;20219;-67
2022/10/09 02:42:16;;;;;;;59.10;4.22;;;;;;;;;;5112299;28;20578;-67
2022/10/09 02:44:43;;;;;;;61.55;4.55;;;;;;;;;;5112178;28;20384;-67
2022/10/09 02:47:10;;;;;;;60.92;5.10;;;;;;;;;;5112120;28;20672;-67
2022/10/09 02:49:37;;;;;;;58.88;3.35;;;;;;;;;;5115696;28;20192;-66
2022/10/09 02:52:06;;;;;;;61.45;5.30;;;;;;;;;;5116358;28;20204;-68
2022/10/09 02:54:33;;;;;;;58.40;3.10;;;;;;;;;;5112267;28;20298;-67
2022/10/09 02:57:00;;;;;;;61.92;5.07;;;;;;;;;;5112179;28;20265;-68
2022/10/09 02:59:27;;;;;;;61.20;4.57;;;;;;;;;;5111631;28;20715;-68
2022/10/09 03:01:54;;;;;;;59.78;4.25;;;;;;;;;;5111349;28;20207;-67
2022/10/09 03:04:22;;;;;;;63.08;4.50;;;;;;;;;;5111746;28;20260;-67
2022/10/09 03:06:49;;;;;;;58.55;3.50;;;;;;;;;;5112118;28;20224;-67
2022/10/09 03:09:17;;;;;;;58.78;2.85;;;;;;;;;;5111544;28;20698;-67
2022/10/09 03:11:44;;;;;;;59.72;3.47;;;;;;;;;;5111969;28;20200;-68
2022/10/09 03:14:11;;;;;;;59.17;4.43;;;;;;;;;;5111292;28;20668;-68
2022/10/09 03:16:38;;;;;;;59.38;3.00;;;;;;;;;;5111721;28;20223;-67
2022/10/09 03:19:05;;;;;;;58.97;3.53;;;;;;;;;;5111309;28;20598;-67
2022/10/09 03:21:32;;;;;;;58.75;3.55;;;;;;;;;;5111908;28;20206;-68
2022/10/09 03:24:00;;;;;;;59.92;3.60;;;;;;;;;;5111745;28;20208;-67
2022/10/09 03:26:28;;;;;;;58.38;2.88;;;;;;;;;;5111192;28;20235;-67
2022/10/09 03:28:55;;;;;;;61.13;4.20;;;;;;;;;;5111328;28;20680;-67
2022/10/09 03:31:24;;;;;;;59.10;2.92;;;;;;;;;;5111595;28;20207;-67
2022/10/09 03:33:51;;;;;;;59.00;3.58;;;;;;;;;;5112042;28;20226;-67
2022/10/09 03:36:18;;;;;;;58.70;3.20;;;;;;;;;;5111236;28;20224;-67
2022/10/09 03:38:45;;;;;;;59.17;4.10;;;;;;;;;;5111289;28;20228;-67
2022/10/09 03:41:12;;;;;;;58.55;2.80;;;;;;;;;;5111683;28;20226;-67
2022/10/09 03:43:41;;;;;;;61.13;4.80;;;;;;;;;;5114770;28;20210;-67
2022/10/09 03:46:08;;;;;;;58.42;2.85;;;;;;;;;;5115118;28;20619;-67
2022/10/09 03:48:36;;;;;;;59.08;3.53;;;;;;;;;;5114417;28;20199;-67
2022/10/09 03:51:03;;;;;;;61.60;4.47;;;;;;;;;;5115146;27;20693;-67
2022/10/09 03:53:30;;;;;;;60.55;3.75;;;;;;;;;;5115147;28;20256;-68
2022/10/09 03:55:57;;;;;;;60.75;4.15;;;;;;;;;;5115010;28;20575;-67
2022/10/09 03:58:24;;;;;;;60.35;4.28;;;;;;;;;;5114739;27;20219;-67
2022/10/09 04:00:53;;;;;;;58.45;3.30;;;;;;;;;;5114170;28;20644;-68
2022/10/09 04:03:20;;;;;;;58.78;3.45;;;;;;;;;;5114972;28;20212;-67
2022/10/09 04:05:48;;;;;;;60.75;4.10;;;;;;;;;;5114790;28;20220;-67
2022/10/09 04:08:15;;;;;;;60.35;4.93;;;;;;;;;;5114897;28;20660;-67
2022/10/09 04:10:42;;;;;;;59.90;4.82;;;;;;;;;;5114092;28;20669;-68
2022/10/09 04:13:09;;;;;;;61.15;4.10;;;;;;;;;;5114523;28;20555;-67
2022/10/09 04:15:36;;;;;;;58.80;3.20;;;;;;;;;;5114748;28;20224;-68
2022/10/09 04:18:05;;;;;;;59.53;3.83;;;;;;;;;;5114716;28;20631;-67
2022/10/09 04:20:32;;;;;;;58.80;3.13;;;;;;;;;;5114413;28;20584;-68
2022/10/09 04:22:59;;;;;;;59.17;3.85;;;;;;;;;;5113896;28;20585;-67
2022/10/09 04:25:26;;;;;;;58.58;3.75;;;;;;;;;;5114406;28;20220;-68
2022/10/09 04:27:53;;;;;;;58.45;3.50;;;;;;;;;;5114462;28;20215;-68
2022/10/09 04:30:20;;;;;;;59.22;3.28;;;;;;;;;;5114132;27;20683;-67
2022/10/09 04:32:47;;;;;;;58.70;3.20;;;;;;;;;;5115803;28;20223;-67
2022/10/09 04:35:16;;;;;;;59.15;3.75;;;;;;;;;;5124474;28;20220;-67
2022/10/09 04:37:43;;;;;;;58.70;3.10;;;;;;;;;;5114508;28;20254;-67
2022/10/09 04:40:10;;;;;;;58.38;3.35;;;;;;;;;;5113769;28;20219;-67
2022/10/09 04:42:38;;;;;;;57.92;3.35;;;;;;;;;;5114401;28;20200;-67
2022/10/09 04:45:05;;;;;;;59.80;3.88;;;;;;;;;;5113796;28;20598;-68
2022/10/09 04:47:32;;;;;;;59.47;3.88;;;;;;;;;;5114008;28;20435;-67
2022/10/09 04:49:59;;;;;;;59.30;4.13;;;;;;;;;;5113760;28;20599;-68
2022/10/09 04:52:28;;;;;;;58.60;3.67;;;;;;;;;;5114084;27;20200;-67
2022/10/09 04:54:55;;;;;;;59.47;4.30;;;;;;;;;;5114115;28;20207;-67
2022/10/09 04:57:22;;;;;;;62.40;4.18;;;;;;;;;;5113345;28;20204;-67
2022/10/09 04:59:49;;;;;;;60.60;4.75;;;;;;;;;;5113589;28;20224;-67
2022/10/09 05:02:17;;;;;;;58.75;3.20;;;;;;;;;;5113932;28;20200;-68
2022/10/09 05:04:44;;;;;;;63.58;5.78;;;;;;;;;;5114264;28;20585;-67
2022/10/09 05:07:11;;;;;;;62.70;6.85;;;;;;;;;;5112444;27;20199;-67
2022/10/09 05:09:39;;;;;;;64.57;5.13;;;;;;;;;;5112175;28;20207;-67
2022/10/09 05:12:06;;;;;;;58.92;3.90;;;;;;;;;;5113782;28;20209;-67
2022/10/09 05:14:34;;;;;;;61.85;5.25;;;;;;;;;;5113658;28;20204;-68
2022/10/09 05:17:04;;;;;;;59.60;4.70;;;;;;;;;;5113387;28;20730;-67
2022/10/09 05:19:31;;;;;;;59.40;4.60;;;;;;;;;;5112766;28;20219;-67
2022/10/09 05:21:58;;;;;;;63.83;5.00;;;;;;;;;;5113326;28;20248;-67
2022/10/09 05:24:25;;;;;;;60.42;3.90;;;;;;;;;;5113719;28;20210;-67
2022/10/09 05:26:53;;;;;;;59.92;3.92;;;;;;;;;;5113362;28;20226;-67
2022/10/09 05:29:20;;;;;;;59.85;4.47;;;;;;;;;;5113049;28;20202;-67
2022/10/09 05:31:48;;;;;;;58.95;3.75;;;;;;;;;;5112588;28;20204;-67
2022/10/09 05:34:15;;;;;;;59.00;4.25;;;;;;;;;;5113002;28;20650;-68
2022/10/09 05:36:42;;;;;;;58.67;3.75;;;;;;;;;;5113286;28;20232;-67
2022/10/09 05:39:09;;;;;;;59.25;4.28;;;;;;;;;;5112648;28;20219;-67
2022/10/09 05:41:36;;;;;;;59.15;4.00;;;;;;;;;;5113146;28;20215;-68
2022/10/09 05:44:05;;;;;;;60.30;4.88;;;;;;;;;;5112411;28;20207;-68
2022/10/09 05:46:32;;;;;;;60.10;3.80;;;;;;;;;;5112889;28;20223;-67
2022/10/09 05:49:00;;;;;;;60.55;5.95;;;;;;;;;;5112472;28;20210;-67
2022/10/09 05:51:28;;;;;;;60.10;4.65;;;;;;;;;;5113025;28;20298;-67
2022/10/09 05:53:56;;;;;;;59.40;3.90;;;;;;;;;;5112642;28;20214;-67
2022/10/09 05:56:24;;;;;;;59.90;4.85;;;;;;;;;;5112516;28;20599;-67
2022/10/09 05:58:52;;;;;;;60.00;4.95;;;;;;;;;;5112319;28;20227;-67
2022/10/09 06:01:21;;;;;;;61.22;5.25;;;;;;;;;;5112605;28;20230;-67
2022/10/09 06:03:49;;;;;;;60.75;4.65;;;;;;;;;;5112587;28;20212;-68
2022/10/09 06:06:17;;;;;;;58.45;3.45;;;;;;;;;;5111840;28;20224;-67
2022/10/09 06:08:44;;;;;;;64.18;3.72;;;;;;;;;;5112198;28;20204;-68
2022/10/09 06:11:12;;;;;;;59.47;3.50;;;;;;;;;;5112587;28;20230;-67
2022/10/09 06:13:39;;;;;;;58.83;4.10;;;;;;;;;;5112594;28;20584;-68
2022/10/09 06:16:06;;;;;;;62.28;6.05;;;;;;;;;;5112822;28;20224;-67
2022/10/09 06:18:35;;;;;;;61.58;4.00;;;;;;;;;;5111431;28;20207;-67
2022/10/09 06:21:02;;;;;;;59.33;4.55;;;;;;;;;;5112546;28;20204;-67
2022/10/09 06:23:31;;;;;;;59.15;4.20;;;;;;;;;;5112468;28;20207;-68
2022/10/09 06:25:59;;;;;;;58.65;3.95;;;;;;;;;;5112339;28;20223;-67
2022/10/09 06:28:26;;;;;;;59.90;4.40;;;;;;;;;;5111782;28;20318;-67
2022/10/09 06:30:54;;;;;;;59.08;3.85;;;;;;;;;;5111745;28;20206;-67
2022/10/09 06:33:21;;;;;;;62.22;6.13;;;;;;;;;;5112379;28;20210;-68
2022/10/09 06:35:49;;;;;;;68.55;8.60;;;;;;;;;;5111946;28;20231;-67
2022/10/09 06:38:16;;;;;;;67.80;9.65;;;;;;;;;;5112144;28;20227;-68
2022/10/09 06:40:44;;;;;;;73.40;13.13;;;;;;;;;;5111233;28;20242;-68
2022/10/09 06:43:11;;;;;;;69.65;9.82;;;;;;;;;;5112460;28;20698;-67
2022/10/09 06:45:38;;;;;;;64.10;7.15;;;;;;;;;;5112284;28;20292;-67
2022/10/09 06:48:05;;;;;;;62.08;5.35;;;;;;;;;;5112183;28;20206;-67
2022/10/09 06:50:35;;;;;;;67.22;5.07;;;;;;;;;;5111816;28;20204;-68
2022/10/09 06:53:04;;;;;;;60.38;4.72;;;;;;;;;;5111376;28;20214;-67
2022/10/09 06:55:31;;;;;;;59.45;4.15;;;;;;;;;;5111925;28;20220;-68
2022/10/09 06:57:58;;;;;;;59.58;4.25;;;;;;;;;;5112098;28;20572;-67
2022/10/09 07:00:25;;;;;;;59.13;4.75;;;;;;;;;;5111829;28;20228;-68
2022/10/09 07:02:52;;;;;;;59.85;4.63;;;;;;;;;;5111729;28;20292;-67
2022/10/09 07:05:19;;;;;;;59.22;3.67;;;;;;;;;;5111681;28;20595;-68
2022/10/09 07:07:46;;;;;;;58.47;2.95;;;;;;;;;;5111929;28;20204;-68
2022/10/09 07:10:15;;;;;;;60.42;4.93;;;;;;;;;;5111480;28;20301;-68
2022/10/09 07:12:42;;;;;;;58.80;4.20;;;;;;;;;;5111850;28;20702;-68
2022/10/09 07:15:09;;;;;;;59.80;3.45;;;;;;;;;;5111255;28;20224;-68
2022/10/09 07:17:37;;;;;;;58.70;3.10;;;;;;;;;;5113563;28;20210;-67
2022/10/09 07:20:04;;;;;;;59.33;3.72;;;;;;;;;;5115487;28;20245;-68
2022/10/09 07:22:31;;;;;;;61.05;4.32;;;;;;;;;;5115629;28;20211;-68
2022/10/09 07:24:58;;;;;;;63.17;3.88;;;;;;;;;;5115613;28;20293;-67
2022/10/09 07:27:26;;;;;;;60.92;4.43;;;;;;;;;;5115201;28;20204;-68
2022/10/09 07:29:53;;;;;;;58.53;3.50;;;;;;;;;;5115416;28;20552;-68
2022/10/09 07:32:21;;;;;;;60.22;3.80;;;;;;;;;;5115696;28;20210;-68
2022/10/09 07:34:48;;;;;;;58.70;3.50;;;;;;;;;;5115374;28;20214;-68
2022/10/09 07:37:15;;;;;;;58.67;3.73;;;;;;;;;;5115151;28;20204;-68
2022/10/09 07:39:42;;;;;;;59.75;4.20;;;;;;;;;;5114841;28;20489;-68
2022/10/09 07:42:09;;;;;;;60.63;4.80;;;;;;;;;;5115285;28;20208;-68
2022/10/09 07:44:37;;;;;;;60.37;4.53;;;;;;;;;;5115207;28;20942;-68
2022/10/09 07:47:05;;;;;;;59.43;4.30;;;;;;;;;;5115250;28;20450;-68
2022/10/09 07:49:32;;;;;;;60.27;3.87;;;;;;;;;;5114364;28;20818;-68
2022/10/09 07:51:59;;;;;;;59.80;4.03;;;;;;;;;;5115351;28;20445;-68
2022/10/09 07:54:26;;;;;;;59.60;3.90;;;;;;;;;;5115105;28;20457;-68
2022/10/09 07:56:53;;;;;;;59.70;3.70;;;;;;;;;;5115172;28;20465;-68
2022/10/09 07:59:20;;;;;;;60.80;4.20;;;;;;;;;;5114803;28;20453;-68
2022/10/09 08:01:49;;;;;;;59.20;3.43;;;;;;;;;;5114300;28;20457;-68
2022/10/09 08:04:16;;;;;;;61.63;4.03;;;;;;;;;;5114852;28;20441;-68
2022/10/09 08:06:43;;;;;;;59.07;3.47;;;;;;;;;;5115143;28;20468;-68
2022/10/09 08:09:10;;;;;;;59.40;4.13;;;;;;;;;;5114435;28;20453;-68
2022/10/09 08:11:39;;;;;;;59.70;4.63;;;;;;;;;;5114934;27;20441;-68
2022/10/09 08:14:07;;;;;;;61.30;4.20;;;;;;;;;;5114872;28;20446;-68
2022/10/09 08:16:34;;;;;;;58.60;3.60;;;;;;;;;;5114592;28;20810;-68
2022/10/09 08:19:03;;;;;;;61.80;4.13;;;;;;;;;;5114260;28;20452;-68
2022/10/09 08:21:31;;;;;;;58.40;3.20;;;;;;;;;;5114319;28;20484;-68
2022/10/09 08:23:59;;;;;;;59.60;3.47;;;;;;;;;;5114719;28;20453;-68
2022/10/09 08:26:27;;;;;;;61.10;4.00;;;;;;;;;;5114669;28;20677;-68
2022/10/09 08:28:55;;;;;;;59.07;4.00;;;;;;;;;;5113830;28;20475;-68
2022/10/09 08:31:23;;;;;;;59.47;4.37;;;;;;;;;;5113903;28;20983;-68
2022/10/09 08:33:52;;;;;;;58.80;3.30;;;;;;;;;;5114024;28;20450;-68
2022/10/09 08:36:21;;;;;;;58.80;3.50;;;;;;;;;;5114420;28;20462;-68
2022/10/09 08:38:48;;;;;;;59.40;3.67;;;;;;;;;;5114103;28;20437;-68
2022/10/09 08:41:19;;;;;;;59.30;3.30;;;;;;;;;;5114184;28;20477;-68
2022/10/09 08:43:48;;;;;;;58.60;3.73;;;;;;;;;;5113505;28;20441;-68
2022/10/09 08:46:18;;;;;;;60.97;3.67;;;;;;;;;;5114300;28;20472;-68
2022/10/09 08:48:46;;;;;;;59.80;4.03;;;;;;;;;;5113923;28;20441;-68
2022/10/09 08:51:16;;;;;;;59.27;3.77;;;;;;;;;;5114173;28;20449;-68
2022/10/09 08:53:47;;;;;;;59.07;2.90;;;;;;;;;;5113878;28;20945;-68
2022/10/09 08:56:15;;;;;;;59.40;4.10;;;;;;;;;;5113263;28;20462;-68
2022/10/09 08:58:43;;;;;;;59.80;3.73;;;;;;;;;;5113667;28;20794;-68
2022/10/09 09:01:16;;;;;;;59.23;3.60;;;;;;;;;;5113850;28;20486;-68
2022/10/09 09:03:50;;;;;;;59.03;3.23;;;;;;;;;;5113886;28;20452;-68
2022/10/09 09:06:22;;;;;;;59.37;3.33;;;;;;;;;;5113040;28;20472;-68
2022/10/09 09:08:54;;;;;;;58.60;3.20;;;;;;;;;;5113268;28;20476;-68
2022/10/09 09:11:24;;;;;;;57.97;3.00;;;;;;;;;;5113918;28;20448;-68
2022/10/09 09:13:54;;;;;;;58.70;3.20;;;;;;;;;;5113683;28;20466;-68
2022/10/09 09:16:25;;;;;;;58.60;3.30;;;;;;;;;;5113656;28;20474;-68
2022/10/09 09:18:59;;;;;;;58.90;3.10;;;;;;;;;;5112603;28;20455;-68
2022/10/09 09:21:32;;;;;;;58.77;3.33;;;;;;;;;;5113362;28;20491;-68
2022/10/09 09:24:03;;;;;;;58.90;3.33;;;;;;;;;;5113479;28;20464;-68
2022/10/09 09:26:30;;;;;;;59.77;3.57;;;;;;;;;;5113490;28;20474;-68
2022/10/09 09:29:00;;;;;;;58.97;4.13;;;;;;;;;;5112630;28;20444;-68
2022/10/09 09:31:30;;;;;;;59.40;3.33;;;;;;;;;;5113160;28;20444;-68
2022/10/09 09:34:00;;;;;;;58.17;2.93;;;;;;;;;;5113043;27;20945;-68
2022/10/09 09:36:28;;;;;;;58.47;3.07;;;;;;;;;;5113444;28;20461;-68
2022/10/09 09:38:56;;;;;;;60.00;3.50;;;;;;;;;;5113069;28;20832;-68
2022/10/09 09:41:24;;;;;;;58.07;2.83;;;;;;;;;;5111725;28;20482;-68
2022/10/09 09:43:51;;;;;;;58.30;3.30;;;;;;;;;;5113073;28;20452;-68
2022/10/09 09:46:20;;;;;;;57.97;2.70;;;;;;;;;;5112872;28;20468;-68
2022/10/09 09:48:48;;;;;;;62.90;2.60;;;;;;;;;;5112884;27;20454;-68
2022/10/09 09:51:17;;;;;;;58.07;2.53;;;;;;;;;;5113037;28;20495;-68
2022/10/09 09:53:46;;;;;;;58.10;2.53;;;;;;;;;;5112487;28;20446;-68
2022/10/09 09:56:13;;;;;;;57.80;2.10;;;;;;;;;;5112868;28;20475;-69
2022/10/09 09:58:47;;;;;;;58.77;2.83;;;;;;;;;;5112396;28;20452;-68
2022/10/09 10:01:21;;;;;;;57.80;2.70;;;;;;;;;;5112926;28;20507;-68
2022/10/09 10:03:49;;;;;;;57.70;2.30;;;;;;;;;;5112109;28;20449;-68
2022/10/09 10:06:21;;;;;;;57.87;2.40;;;;;;;;;;5112580;28;20988;-68
2022/10/09 10:08:57;;;;;;;58.30;2.87;;;;;;;;;;5112397;28;20450;-68
2022/10/09 10:11:24;;;;;;;58.93;2.40;;;;;;;;;;5112584;28;20441;-68
2022/10/09 10:13:53;;;;;;;57.47;2.20;;;;;;;;;;5112526;28;20454;-69
2022/10/09 10:16:22;;;;;;;57.80;2.20;;;;;;;;;;5111917;28;20474;-68
2022/10/09 10:18:49;;;;;;;57.80;2.30;;;;;;;;;;5112129;28;20445;-68
2022/10/09 10:21:17;;;;;;;57.37;2.47;;;;;;;;;;5112505;28;20841;-68
2022/10/09 10:23:46;;;;;;;57.17;2.43;;;;;;;;;;5112439;28;20822;-68
2022/10/09 10:26:21;;;;;;;58.73;3.00;;;;;;;;;;5112180;28;20576;-69
2022/10/09 10:28:50;;;;;;;57.80;2.30;;;;;;;;;;5112019;28;20445;-69
2022/10/09 10:31:24;;;;;;;57.23;2.30;;;;;;;;;;5112778;28;20450;-68
2022/10/09 10:33:54;;;;;;;57.50;2.33;;;;;;;;;;5112303;28;20972;-69
2022/10/09 10:36:21;;;;;;;57.07;2.60;;;;;;;;;;5112633;28;20465;-68
2022/10/09 10:38:51;;;;;;;57.80;2.40;;;;;;;;;;5111651;28;20453;-68
2022/10/09 10:41:21;;;;;;;58.00;2.27;;;;;;;;;;5112324;28;20481;-68
2022/10/09 10:43:50;;;;;;;57.80;2.43;;;;;;;;;;5112610;28;20527;-68
2022/10/09 10:46:21;;;;;;;58.10;2.20;;;;;;;;;;5112324;28;20495;-69
2022/10/09 10:48:50;;;;;;;57.13;2.30;;;;;;;;;;5111797;28;20450;-68
2022/10/09 10:51:31;;;;;;;57.37;2.37;;;;;;;;;;5113006;28;20949;-68
2022/10/09 10:54:04;;;;;;;57.23;2.00;;;;;;;;;;5116776;28;20836;-69
2022/10/09 10:56:33;;;;;;;57.30;2.20;;;;;;;;;;5116477;28;20469;-68
2022/10/09 10:59:10;;;;;;;60.37;2.00;;;;;;;;;;5116221;27;20957;-68
2022/10/09 11:01:41;;;;;;;57.07;2.10;;;;;;;;;;5116097;28;20480;-69
2022/10/09 11:04:22;;;;;;;57.00;2.00;;;;;;;;;;5117523;28;20453;-68
2022/10/09 11:06:53;;;;;;;57.60;1.90;;;;;;;;;;5116659;28;20465;-68
2022/10/09 11:09:24;;;;;;;58.37;2.30;;;;;;;;;;5116783;28;20449;-68
2022/10/09 11:11:55;;;;;;;57.27;1.90;;;;;;;;;;5115990;28;20452;-68
2022/10/09 11:14:38;;;;;;;57.37;1.90;;;;;;;;;;5116322;28;20452;-68
2022/10/09 11:17:07;;;;;;;57.83;1.87;;;;;;;;;;5116944;28;20449;-68
2022/10/09 11:19:55;;;;;;;58.60;2.30;;;;;;;;;;5116016;27;20447;-69
2022/10/09 11:22:32;;;;;;;57.40;1.90;;;;;;;;;;5089635;27;20485;-68
2022/10/09 11:25:11;;;;;;;57.07;2.00;;;;;;;;;;5114943;28;20473;-68
2022/10/09 11:27:40;;;;;;;57.20;1.93;;;;;;;;;;5115874;28;20451;-68
2022/10/09 11:30:10;;;;;;;58.97;2.10;;;;;;;;;;5115417;28;20456;-68
2022/10/09 11:32:40;;;;;;;58.83;4.30;;;;;;;;;;5115500;28;20444;-68
2022/10/09 11:35:14;;;;;;;57.80;2.00;;;;;;;;;;5115507;28;20482;-68
2022/10/09 11:37:44;;;;;;;58.60;1.80;;;;;;;;;;5115502;28;20446;-69
2022/10/09 11:40:14;;;;;;;56.97;1.80;;;;;;;;;;5115115;28;20941;-68
2022/10/09 11:42:42;;;;;;;57.20;2.00;;;;;;;;;;5115456;28;20491;-69
2022/10/09 11:45:19;;;;;;;57.17;1.93;;;;;;;;;;5115237;27;20474;-68
2022/10/09 11:47:49;;;;;;;57.67;1.90;;;;;;;;;;5114605;28;20445;-68
2022/10/09 11:50:27;;;;;;;56.70;1.97;;;;;;;;;;5115224;28;20461;-68
2022/10/09 11:52:59;;;;;;;57.17;2.00;;;;;;;;;;5115796;28;20475;-68
2022/10/09 11:55:28;;;;;;;56.87;1.93;;;;;;;;;;5115104;28;20469;-68
2022/10/09 11:57:55;;;;;;;57.47;2.30;;;;;;;;;;5115182;27;20454;-68
2022/10/09 12:00:29;;;;;;;56.97;2.27;;;;;;;;;;5114491;28;20449;-68
2022/10/09 12:02:58;;;;;;;57.40;2.10;;;;;;;;;;5114532;28;20441;-69
2022/10/09 12:05:33;;;;;;;57.47;2.07;;;;;;;;;;5114992;28;20466;-68
2022/10/09 12:08:09;;;;;;;66.80;2.40;;;;;;;;;;5114794;28;20452;-68
2022/10/09 12:10:39;;;;;;;57.00;1.90;;;;;;;;;;5114194;28;20449;-68
2022/10/09 12:13:07;;;;;;;57.47;2.00;;;;;;;;;;5114850;28;20456;-68
2022/10/09 12:15:39;;;;;;;57.13;2.00;;;;;;;;;;5114912;28;20812;-68
2022/10/09 12:18:14;;;;;;;58.00;2.30;;;;;;;;;;5114725;28;20454;-68
2022/10/09 12:20:45;;;;;;;56.77;2.00;;;;;;;;;;5114251;28;20445;-68
2022/10/09 12:23:14;;;;;;;57.57;2.20;;;;;;;;;;5114260;27;20446;-69
2022/10/09 12:25:43;;;;;;;57.07;1.80;;;;;;;;;;5114452;28;20466;-69
2022/10/09 12:28:17;;;;;;;57.10;1.80;;;;;;;;;;5114581;28;20791;-69
2022/10/09 12:30:47;;;;;;;57.40;2.07;;;;;;;;;;5114331;28;20449;-69
2022/10/09 12:33:18;;;;;;;57.07;2.10;;;;;;;;;;5113836;28;20452;-69
2022/10/09 12:35:47;;;;;;;57.60;2.17;;;;;;;;;;5114373;28;20500;-69
2022/10/09 12:38:23;;;;;;;57.87;2.30;;;;;;;;;;5114628;28;20457;-68
2022/10/09 12:40:52;;;;;;;57.60;2.10;;;;;;;;;;5114046;28;20448;-69
2022/10/09 12:43:19;;;;;;;57.20;1.80;;;;;;;;;;5114272;28;20451;-68
2022/10/09 12:45:47;;;;;;;57.40;1.90;;;;;;;;;;5113340;28;21004;-69
2022/10/09 12:48:15;;;;;;;57.07;1.90;;;;;;;;;;5114278;28;20465;-69
2022/10/09 12:50:42;;;;;;;57.10;1.83;;;;;;;;;;5114045;28;20820;-69
2022/10/09 12:53:13;;;;;;;58.17;2.20;;;;;;;;;;5114127;28;20450;-69
2022/10/09 12:55:44;;;;;;;57.17;1.90;;;;;;;;;;5113506;28;20564;-68
2022/10/09 12:58:15;;;;;;;57.00;2.07;;;;;;;;;;5113763;28;20466;-68
2022/10/09 13:00:42;;;;;;;57.27;2.03;;;;;;;;;;5113896;28;20506;-68
2022/10/09 13:03:22;;;;;;;57.20;2.00;;;;;;;;;;5114003;28;20438;-69
2022/10/09 13:05:49;;;;;;;56.90;1.90;;;;;;;;;;5113866;28;20829;-69
2022/10/09 13:08:22;;;;;;;57.17;2.00;;;;;;;;;;5112790;28;20460;-69
2022/10/09 13:10:51;;;;;;;57.37;2.00;;;;;;;;;;5113756;28;20442;-67
2022/10/09 13:13:20;;;;;;;57.70;2.10;;;;;;;;;;5113839;28;20459;-67
2022/10/09 13:15:58;;;;;;;56.87;1.80;;;;;;;;;;5112459;28;21011;-69
2022/10/09 13:18:25;;;;;;;57.33;2.03;;;;;;;;;;5113367;28;20461;-69
2022/10/09 13:20:58;;;;;;;56.83;1.90;;;;;;;;;;5112653;28;20445;-69
2022/10/09 13:23:27;;;;;;;60.47;2.03;;;;;;;;;;5113429;28;20818;-67
2022/10/09 13:25:56;;;;;;;57.20;2.00;;;;;;;;;;5113449;27;20465;-67
2022/10/09 13:28:23;;;;;;;57.20;1.83;;;;;;;;;;5113477;28;20921;-67
2022/10/09 13:30:50;;;;;;;56.97;1.87;;;;;;;;;;5112397;28;20457;-67
2022/10/09 13:33:17;;;;;;;57.47;2.20;;;;;;;;;;5113128;28;20448;-67
2022/10/09 13:35:45;;;;;;;58.17;2.00;;;;;;;;;;5112993;28;20492;-66
2022/10/09 13:38:14;;;;;;;58.00;2.30;;;;;;;;;;5113003;28;20490;-67
2022/10/09 13:40:42;;;;;;;57.23;2.30;;;;;;;;;;5112889;28;20457;-67
2022/10/09 13:43:13;;;;;;;58.40;2.00;;;;;;;;;;5112214;28;20572;-67
2022/10/09 13:45:41;;;;;;;57.83;2.00;;;;;;;;;;5112990;28;20469;-67
2022/10/09 13:48:08;;;;;;;56.87;1.90;;;;;;;;;;5112760;28;20453;-66
2022/10/09 13:50:35;;;;;;;57.33;2.20;;;;;;;;;;5112859;28;20441;-67
2022/10/09 13:53:02;;;;;;;57.80;2.30;;;;;;;;;;5112790;28;20442;-68
2022/10/09 13:55:29;;;;;;;57.07;2.13;;;;;;;;;;5110945;28;20989;-68
2022/10/09 13:57:56;;;;;;;57.43;2.30;;;;;;;;;;5111529;28;20639;-68
2022/10/09 14:00:24;;;;;;;57.60;2.03;;;;;;;;;;5111686;27;20446;-68
2022/10/09 14:02:52;;;;;;;59.97;3.90;;;;;;;;;;5112629;28;20488;-68
2022/10/09 14:05:20;;;;;;;57.27;2.00;;;;;;;;;;5112048;28;20819;-69
2022/10/09 14:07:47;;;;;;;57.10;1.90;;;;;;;;;;5110727;28;20449;-69
2022/10/09 14:10:14;;;;;;;57.47;1.93;;;;;;;;;;5111257;28;20453;-69
2022/10/09 14:12:41;;;;;;;56.97;1.87;;;;;;;;;;5111577;28;20442;-69
2022/10/09 14:15:09;;;;;;;65.20;2.27;;;;;;;;;;5112432;28;20472;-68
2022/10/09 14:17:37;;;;;;;57.17;1.90;;;;;;;;;;5111699;28;20934;-68
2022/10/09 14:20:05;;;;;;;57.40;2.20;;;;;;;;;;5112318;28;20445;-68
2022/10/09 14:22:32;;;;;;;57.77;2.20;;;;;;;;;;5112119;28;20577;-68
2022/10/09 14:24:59;;;;;;;59.70;2.23;;;;;;;;;;5112406;28;20462;-68
2022/10/09 14:27:26;;;;;;;57.80;2.10;;;;;;;;;;5111757;28;20900;-68
2022/10/09 14:29:53;;;;;;;57.87;2.30;;;;;;;;;;5111387;28;20453;-68
2022/10/09 14:32:20;;;;;;;57.37;2.20;;;;;;;;;;5112514;28;20437;-68
2022/10/09 14:34:49;;;;;;;58.00;2.07;;;;;;;;;;5112101;28;20457;-68
2022/10/09 14:37:17;;;;;;;58.20;2.47;;;;;;;;;;5112378;28;20865;-68
2022/10/09 14:39:45;;;;;;;61.20;2.60;;;;;;;;;;5111281;28;20464;-68
2022/10/09 14:42:12;;;;;;;57.33;2.20;;;;;;;;;;5111861;28;20839;-68